Cannel City, KY (41408)

10:50 AM EDT on September 22, 2014 (GMT -0400)
Carroll | Change Station
CLOSE
Current Station
Airport
Location: Jackson,
Elevation: 1381 ft
Nearby Weather Stations

Elev 1381 ft 37.59 °N, 83.31 °W | Updated 41 minutes ago

Partly Cloudy
Partly Cloudy
56 °F
Feels Like 56 °F
N
4
Wind Variable Wind from Variable

Today
High -- | Low -- °F
--% Chance of Precip.
Yesterday
High -- | Low -- °F
Precip. -- in
7:20 AM 7:30 PM
Waning Crescent, 3% visible
Pressure 30.19 in
Visibility 10.0 miles
Clouds Scattered Clouds 2500 ft
Dew Point 49 °F
Humidity 77%
Rainfall 0.00 in
Snow Depth Not available.
UV 3 out of 12
Pollen 4.20 out of 12
Air Quality Not available.
Flu Activity Not available.
SPECI KJKL 221409Z AUTO VRB03KT 10SM SCT025 13/09 A3019 RMK AO2 T01330094

More Conditions Fewer Conditions

Pressure 30.19 in
Visibility 10.0 miles
Clouds Scattered Clouds 2500 ft
Dew Point 49 °F
Humidity 77%
Rainfall 0.00 in
Snow Depth Not available.
UV 3 out of 12
Pollen 4.20 out of 12
Air Quality Not available.
Flu Activity Not available.
SPECI KJKL 221409Z AUTO VRB03KT 10SM SCT025 13/09 A3019 RMK AO2 T01330094

More Conditions Fewer Conditions

10-Day Weather Forecast

Almanac

Astronomy

Sep. 22, 2014 Rise Set
Actual Time 7:20 AM EDT 7:30 PM EDT
Civil Twilight 6:54 AM EDT 7:56 PM EDT
Nautical Twilight 6:24 AM EDT 8:26 PM EDT
Astronomical Twilight 5:52 AM EDT 8:57 PM EDT
Moon 5:49 AM EDT 6:36 PM EDT
Length of Visible Light 13h 01m
Length of Day
12h 09m
Tomorrow will be 2m 24s shorter.
Waning Crescent, 3% of the Moon is Illuminated
Today
Waning Crescent
Sep 24
New
Oct 1
First Quarter
Oct 8
Full
Oct 15
Last Quarter

Today's Extremes

State Highs State Lows

Community

WunderPhotos

Upload Photos

1,755,459 photos uploaded!

WunderBlogs® & News

Nearby

Snow Depth

Station Depth Elevation
No new snow has been reported.

Earthquake Activity

City Distance Mag. Time & Date
No recent earthquake activity has been reported nearby.
Minimum magnitude displayed is 2.5.

Coastal Water Temperatures

Place Temperature
No Stations Reporting

Nearby Weather Stations